Seven Seas — J8B5110 — position and weather

sailwx.info

Track history (hours):
 
Tides and Currents Weather Stations Pressure Air Temp Water Temp Dewpoint Dewpoint Depression Visibility Wind Speed Wind Dir Waves Ship Positions

Seven Seas

Last reported at 2017-Nov-19 10:41 UTC. Time now 2017-Nov-21 10:10 UTC.
Position N 32°49' E 035°02'.

Length 88 m; draft 5.6 m.

Type: Cargo ship. MMSI: 376783000.

Date/timePositionNaut miles runAvg speedWind from/ knotsBaromVisibWave heightAir tempDewpointWater temp
2017-Nov-19 10:41N 32°49' E 035°02'1 5.1
2017-Nov-19 10:24N 32°50' E 035°01'6 0.1
2017-Nov-17 12:30N 32°53' E 034°55'3 7.0
2017-Nov-17 12:00N 32°54' E 034°51'5 9.1
2017-Nov-17 11:30N 32°55' E 034°45'5 9.1
2017-Nov-17 11:00N 32°57' E 034°40'10 0.2
2017-Nov-15 14:45N 32°54' E 034°52'8 9.7
2017-Nov-15 13:55N 32°51' E 035°01'1 0.0
2017-Nov-14 12:09N 32°50' E 035°01'9 0.2
2017-Nov-12 18:39N 32°54' E 034°52'210.3
2017-Nov-12 18:24N 32°53' E 034°55'610.2
2017-Nov-12 17:50N 32°51' E 035°01'2 0.1
2017-Nov-11 12:49N 32°49' E 035°02'2 5.4
2017-Nov-11 12:31N 32°50' E 035°01'0 0.0
2017-Nov-09 12:17N 32°51' E 035°01'2 5.9
2017-Nov-09 11:55N 32°49' E 035°02'  
Track history (hours):
 
Tides and Currents Weather Stations Pressure Air Temp Water Temp Dewpoint Dewpoint Depression Visibility Wind Speed Wind Dir Waves Ship Positions

Seven Seas

Last reported at 2017-Nov-19 10:41 UTC. Time now 2017-Nov-21 10:10 UTC.
Position N 32°49' E 035°02'.

Length 88 m; draft 5.6 m.

Type: Cargo ship. MMSI: 376783000.

Date/timePositionNaut miles runAvg speedWind from/ knotsBaromVisibWave heightAir tempDewpointWater temp
2017-Nov-19 10:41N 32°49' E 035°02'1 5.1
2017-Nov-19 10:24N 32°50' E 035°01'6 0.1
2017-Nov-17 12:30N 32°53' E 034°55'3 7.0
2017-Nov-17 12:00N 32°54' E 034°51'5 9.1
2017-Nov-17 11:30N 32°55' E 034°45'5 9.1
2017-Nov-17 11:00N 32°57' E 034°40'10 0.2
2017-Nov-15 14:45N 32°54' E 034°52'8 9.7
2017-Nov-15 13:55N 32°51' E 035°01'1 0.0
2017-Nov-14 12:09N 32°50' E 035°01'9 0.2
2017-Nov-12 18:39N 32°54' E 034°52'210.3
2017-Nov-12 18:24N 32°53' E 034°55'610.2
2017-Nov-12 17:50N 32°51' E 035°01'2 0.1
2017-Nov-11 12:49N 32°49' E 035°02'2 5.4
2017-Nov-11 12:31N 32°50' E 035°01'0 0.0
2017-Nov-09 12:17N 32°51' E 035°01'2 5.9
2017-Nov-09 11:55N 32°49' E 035°02'  

Dump ship's entire track history